sensor_id;sensor_type;location;lat;lon;timestamp;P1;durP1;ratioP1;P2;durP2;ratioP2
1701;SDS011;848;48.354;10.064;2023-07-08T00:02:11;14.90;;;8.25;;
1701;SDS011;848;48.354;10.064;2023-07-08T00:04:39;12.93;;;7.82;;
1701;SDS011;848;48.354;10.064;2023-07-08T00:07:09;14.00;;;7.40;;
1701;SDS011;848;48.354;10.064;2023-07-08T00:09:39;14.38;;;7.82;;
1701;SDS011;848;48.354;10.064;2023-07-08T00:12:08;15.55;;;6.85;;
1701;SDS011;848;48.354;10.064;2023-07-08T00:14:36;15.55;;;8.48;;
1701;SDS011;848;48.354;10.064;2023-07-08T00:17:07;15.68;;;7.55;;
1701;SDS011;848;48.354;10.064;2023-07-08T00:19:38;13.10;;;7.03;;
1701;SDS011;848;48.354;10.064;2023-07-08T00:22:08;13.80;;;8.60;;
1701;SDS011;848;48.354;10.064;2023-07-08T00:24:38;15.82;;;7.93;;
1701;SDS011;848;48.354;10.064;2023-07-08T00:27:07;14.73;;;8.10;;
1701;SDS011;848;48.354;10.064;2023-07-08T00:29:36;15.02;;;8.20;;
1701;SDS011;848;48.354;10.064;2023-07-08T00:32:07;14.63;;;6.93;;
1701;SDS011;848;48.354;10.064;2023-07-08T00:34:38;14.85;;;7.97;;
1701;SDS011;848;48.354;10.064;2023-07-08T00:37:07;12.70;;;8.00;;
1701;SDS011;848;48.354;10.064;2023-07-08T00:39:37;16.60;;;8.65;;
1701;SDS011;848;48.354;10.064;2023-07-08T00:42:06;11.77;;;7.50;;
1701;SDS011;848;48.354;10.064;2023-07-08T00:44:40;14.95;;;7.53;;
1701;SDS011;848;48.354;10.064;2023-07-08T00:47:08;11.93;;;7.07;;
1701;SDS011;848;48.354;10.064;2023-07-08T00:49:40;11.95;;;7.07;;
1701;SDS011;848;48.354;10.064;2023-07-08T00:52:15;14.18;;;7.70;;
1701;SDS011;848;48.354;10.064;2023-07-08T00:54:44;13.57;;;7.90;;
1701;SDS011;848;48.354;10.064;2023-07-08T00:57:10;13.18;;;7.60;;
1701;SDS011;848;48.354;10.064;2023-07-08T00:59:38;16.20;;;8.43;;
1701;SDS011;848;48.354;10.064;2023-07-08T01:02:11;13.32;;;7.78;;
1701;SDS011;848;48.354;10.064;2023-07-08T01:04:41;13.90;;;7.90;;
1701;SDS011;848;48.354;10.064;2023-07-08T01:07:12;13.95;;;6.93;;
1701;SDS011;848;48.354;10.064;2023-07-08T01:09:46;13.88;;;7.07;;
1701;SDS011;848;48.354;10.064;2023-07-08T01:12:16;12.98;;;7.53;;
1701;SDS011;848;48.354;10.064;2023-07-08T01:14:47;14.05;;;7.43;;
1701;SDS011;848;48.354;10.064;2023-07-08T01:17:19;15.93;;;7.95;;
1701;SDS011;848;48.354;10.064;2023-07-08T01:19:47;12.38;;;7.25;;
1701;SDS011;848;48.354;10.064;2023-07-08T01:22:17;12.85;;;8.05;;
1701;SDS011;848;48.354;10.064;2023-07-08T01:24:44;14.05;;;7.78;;
1701;SDS011;848;48.354;10.064;2023-07-08T01:27:13;18.67;;;7.05;;
1701;SDS011;848;48.354;10.064;2023-07-08T01:29:42;13.27;;;7.40;;
1701;SDS011;848;48.354;10.064;2023-07-08T01:32:10;13.98;;;7.93;;
1701;SDS011;848;48.354;10.064;2023-07-08T01:34:43;14.80;;;7.43;;
1701;SDS011;848;48.354;10.064;2023-07-08T01:37:26;16.73;;;7.78;;
1701;SDS011;848;48.354;10.064;2023-07-08T01:40:13;13.25;;;7.63;;
1701;SDS011;848;48.354;10.064;2023-07-08T01:42:41;11.77;;;7.45;;
1701;SDS011;848;48.354;10.064;2023-07-08T01:45:10;13.80;;;7.40;;
1701;SDS011;848;48.354;10.064;2023-07-08T01:47:38;14.25;;;7.50;;
1701;SDS011;848;48.354;10.064;2023-07-08T01:50:07;12.43;;;7.88;;
1701;SDS011;848;48.354;10.064;2023-07-08T01:52:37;14.10;;;7.38;;
1701;SDS011;848;48.354;10.064;2023-07-08T01:55:04;15.80;;;7.65;;
1701;SDS011;848;48.354;10.064;2023-07-08T01:57:32;14.80;;;6.70;;
1701;SDS011;848;48.354;10.064;2023-07-08T01:59:59;13.57;;;7.93;;
1701;SDS011;848;48.354;10.064;2023-07-08T02:02:25;13.32;;;7.15;;
1701;SDS011;848;48.354;10.064;2023-07-08T02:04:52;16.27;;;8.30;;
1701;SDS011;848;48.354;10.064;2023-07-08T02:07:19;15.88;;;7.82;;
1701;SDS011;848;48.354;10.064;2023-07-08T02:09:47;15.05;;;8.18;;
1701;SDS011;848;48.354;10.064;2023-07-08T02:12:14;13.95;;;7.75;;
1701;SDS011;848;48.354;10.064;2023-07-08T02:14:41;15.25;;;8.10;;
1701;SDS011;848;48.354;10.064;2023-07-08T02:17:08;13.23;;;7.07;;
1701;SDS011;848;48.354;10.064;2023-07-08T02:19:34;14.83;;;8.17;;
1701;SDS011;848;48.354;10.064;2023-07-08T02:22:00;18.05;;;8.15;;
1701;SDS011;848;48.354;10.064;2023-07-08T02:24:29;14.13;;;9.20;;
1701;SDS011;848;48.354;10.064;2023-07-08T02:26:57;14.27;;;8.40;;
1701;SDS011;848;48.354;10.064;2023-07-08T02:29:24;13.48;;;8.50;;
1701;SDS011;848;48.354;10.064;2023-07-08T02:31:52;14.60;;;9.10;;
1701;SDS011;848;48.354;10.064;2023-07-08T02:34:19;14.70;;;8.15;;
1701;SDS011;848;48.354;10.064;2023-07-08T02:36:46;17.30;;;9.18;;
1701;SDS011;848;48.354;10.064;2023-07-08T02:39:13;14.48;;;8.43;;
1701;SDS011;848;48.354;10.064;2023-07-08T02:41:39;12.25;;;7.32;;
1701;SDS011;848;48.354;10.064;2023-07-08T02:44:08;15.35;;;8.18;;
1701;SDS011;848;48.354;10.064;2023-07-08T02:46:34;17.50;;;10.85;;
1701;SDS011;848;48.354;10.064;2023-07-08T02:49:01;13.70;;;7.95;;
1701;SDS011;848;48.354;10.064;2023-07-08T02:51:29;16.83;;;8.85;;
1701;SDS011;848;48.354;10.064;2023-07-08T02:53:56;15.60;;;8.55;;
1701;SDS011;848;48.354;10.064;2023-07-08T02:56:23;15.82;;;8.40;;
1701;SDS011;848;48.354;10.064;2023-07-08T02:58:51;12.80;;;7.65;;
1701;SDS011;848;48.354;10.064;2023-07-08T03:01:19;15.80;;;7.75;;
1701;SDS011;848;48.354;10.064;2023-07-08T03:03:46;12.43;;;7.18;;
1701;SDS011;848;48.354;10.064;2023-07-08T03:06:14;12.38;;;7.65;;
1701;SDS011;848;48.354;10.064;2023-07-08T03:08:41;14.38;;;7.90;;
1701;SDS011;848;48.354;10.064;2023-07-08T03:11:08;20.85;;;7.60;;
1701;SDS011;848;48.354;10.064;2023-07-08T03:13:35;13.68;;;8.20;;
1701;SDS011;848;48.354;10.064;2023-07-08T03:16:02;13.70;;;7.75;;
1701;SDS011;848;48.354;10.064;2023-07-08T03:18:39;12.57;;;6.43;;
1701;SDS011;848;48.354;10.064;2023-07-08T03:21:11;13.20;;;7.03;;
1701;SDS011;848;48.354;10.064;2023-07-08T03:23:38;11.77;;;7.47;;
1701;SDS011;848;48.354;10.064;2023-07-08T03:26:05;12.70;;;7.88;;
1701;SDS011;848;48.354;10.064;2023-07-08T03:28:32;13.02;;;7.72;;
1701;SDS011;848;48.354;10.064;2023-07-08T03:30:59;11.95;;;8.00;;
1701;SDS011;848;48.354;10.064;2023-07-08T03:33:26;12.80;;;7.20;;
1701;SDS011;848;48.354;10.064;2023-07-08T03:35:55;12.25;;;6.50;;
1701;SDS011;848;48.354;10.064;2023-07-08T03:38:22;12.13;;;7.50;;
1701;SDS011;848;48.354;10.064;2023-07-08T03:40:49;14.70;;;7.97;;
1701;SDS011;848;48.354;10.064;2023-07-08T03:43:16;15.95;;;8.00;;
1701;SDS011;848;48.354;10.064;2023-07-08T03:45:43;13.68;;;7.43;;
1701;SDS011;848;48.354;10.064;2023-07-08T03:48:10;14.07;;;7.93;;
1701;SDS011;848;48.354;10.064;2023-07-08T03:50:38;14.80;;;8.45;;
1701;SDS011;848;48.354;10.064;2023-07-08T03:53:08;17.00;;;7.88;;
1701;SDS011;848;48.354;10.064;2023-07-08T03:55:35;10.43;;;6.47;;
1701;SDS011;848;48.354;10.064;2023-07-08T03:58:02;12.70;;;8.52;;
1701;SDS011;848;48.354;10.064;2023-07-08T04:00:29;12.77;;;8.00;;
1701;SDS011;848;48.354;10.064;2023-07-08T04:02:56;14.20;;;8.18;;
1701;SDS011;848;48.354;10.064;2023-07-08T04:05:23;12.80;;;7.90;;
1701;SDS011;848;48.354;10.064;2023-07-08T04:07:50;14.93;;;8.75;;
1701;SDS011;848;48.354;10.064;2023-07-08T04:10:18;12.88;;;7.25;;
1701;SDS011;848;48.354;10.064;2023-07-08T04:12:45;15.50;;;8.25;;
1701;SDS011;848;48.354;10.064;2023-07-08T04:15:12;14.80;;;9.35;;
1701;SDS011;848;48.354;10.064;2023-07-08T04:17:40;13.60;;;8.90;;
1701;SDS011;848;48.354;10.064;2023-07-08T04:20:10;14.00;;;8.65;;
1701;SDS011;848;48.354;10.064;2023-07-08T04:22:39;13.57;;;8.80;;
1701;SDS011;848;48.354;10.064;2023-07-08T04:25:06;15.57;;;8.98;;
1701;SDS011;848;48.354;10.064;2023-07-08T04:27:36;14.60;;;8.93;;
1701;SDS011;848;48.354;10.064;2023-07-08T04:30:03;18.17;;;9.70;;
1701;SDS011;848;48.354;10.064;2023-07-08T04:32:31;12.70;;;8.88;;
1701;SDS011;848;48.354;10.064;2023-07-08T04:34:58;13.75;;;7.40;;
1701;SDS011;848;48.354;10.064;2023-07-08T04:37:24;14.95;;;8.57;;
1701;SDS011;848;48.354;10.064;2023-07-08T04:39:51;14.07;;;8.30;;
1701;SDS011;848;48.354;10.064;2023-07-08T04:42:18;13.00;;;7.55;;
1701;SDS011;848;48.354;10.064;2023-07-08T04:44:46;12.23;;;7.85;;
1701;SDS011;848;48.354;10.064;2023-07-08T04:47:14;14.80;;;8.20;;
1701;SDS011;848;48.354;10.064;2023-07-08T04:49:41;12.27;;;7.45;;
1701;SDS011;848;48.354;10.064;2023-07-08T04:52:09;11.82;;;7.55;;
1701;SDS011;848;48.354;10.064;2023-07-08T04:54:36;13.75;;;7.75;;
1701;SDS011;848;48.354;10.064;2023-07-08T04:57:03;11.63;;;7.18;;
1701;SDS011;848;48.354;10.064;2023-07-08T04:59:30;11.18;;;7.38;;
1701;SDS011;848;48.354;10.064;2023-07-08T05:02:01;12.90;;;7.90;;
1701;SDS011;848;48.354;10.064;2023-07-08T05:04:27;16.90;;;8.57;;
1701;SDS011;848;48.354;10.064;2023-07-08T05:06:54;14.93;;;7.22;;
1701;SDS011;848;48.354;10.064;2023-07-08T05:09:21;12.10;;;7.38;;
1701;SDS011;848;48.354;10.064;2023-07-08T05:11:50;15.15;;;7.72;;
1701;SDS011;848;48.354;10.064;2023-07-08T05:14:18;12.63;;;7.50;;
1701;SDS011;848;48.354;10.064;2023-07-08T05:16:45;10.90;;;6.78;;
1701;SDS011;848;48.354;10.064;2023-07-08T05:19:14;12.88;;;6.93;;
1701;SDS011;848;48.354;10.064;2023-07-08T05:21:41;13.40;;;7.40;;
1701;SDS011;848;48.354;10.064;2023-07-08T05:24:10;17.00;;;8.55;;
1701;SDS011;848;48.354;10.064;2023-07-08T05:26:37;12.00;;;7.10;;
1701;SDS011;848;48.354;10.064;2023-07-08T05:29:04;14.27;;;7.43;;
1701;SDS011;848;48.354;10.064;2023-07-08T05:31:31;12.55;;;7.20;;
1701;SDS011;848;48.354;10.064;2023-07-08T05:33:59;14.95;;;8.15;;
1701;SDS011;848;48.354;10.064;2023-07-08T05:36:27;14.98;;;9.02;;
1701;SDS011;848;48.354;10.064;2023-07-08T05:38:54;14.38;;;8.27;;
1701;SDS011;848;48.354;10.064;2023-07-08T05:41:21;13.65;;;8.23;;
1701;SDS011;848;48.354;10.064;2023-07-08T05:43:48;13.50;;;8.40;;
1701;SDS011;848;48.354;10.064;2023-07-08T05:46:15;14.63;;;8.05;;
1701;SDS011;848;48.354;10.064;2023-07-08T05:48:42;37.83;;;10.65;;
1701;SDS011;848;48.354;10.064;2023-07-08T05:51:09;15.50;;;8.35;;
1701;SDS011;848;48.354;10.064;2023-07-08T05:53:37;13.82;;;8.40;;
1701;SDS011;848;48.354;10.064;2023-07-08T05:56:04;11.05;;;6.95;;
1701;SDS011;848;48.354;10.064;2023-07-08T05:58:31;13.02;;;8.90;;
1701;SDS011;848;48.354;10.064;2023-07-08T06:00:58;14.35;;;7.38;;
1701;SDS011;848;48.354;10.064;2023-07-08T06:03:25;16.75;;;8.43;;
1701;SDS011;848;48.354;10.064;2023-07-08T06:05:52;14.27;;;7.78;;
1701;SDS011;848;48.354;10.064;2023-07-08T06:08:19;14.35;;;8.27;;
1701;SDS011;848;48.354;10.064;2023-07-08T06:10:49;19.95;;;8.68;;
1701;SDS011;848;48.354;10.064;2023-07-08T06:13:16;14.82;;;8.75;;
1701;SDS011;848;48.354;10.064;2023-07-08T06:15:43;15.75;;;9.23;;
1701;SDS011;848;48.354;10.064;2023-07-08T06:18:10;20.92;;;10.38;;
1701;SDS011;848;48.354;10.064;2023-07-08T06:20:36;12.48;;;8.18;;
1701;SDS011;848;48.354;10.064;2023-07-08T06:23:03;14.02;;;8.57;;
1701;SDS011;848;48.354;10.064;2023-07-08T06:25:31;14.80;;;8.23;;
1701;SDS011;848;48.354;10.064;2023-07-08T06:27:59;13.13;;;8.15;;
1701;SDS011;848;48.354;10.064;2023-07-08T06:30:26;13.88;;;7.93;;
1701;SDS011;848;48.354;10.064;2023-07-08T06:32:53;15.32;;;8.25;;
1701;SDS011;848;48.354;10.064;2023-07-08T06:35:20;12.88;;;8.20;;
1701;SDS011;848;48.354;10.064;2023-07-08T06:37:47;12.68;;;7.35;;
1701;SDS011;848;48.354;10.064;2023-07-08T06:40:14;21.23;;;8.93;;
1701;SDS011;848;48.354;10.064;2023-07-08T06:42:42;13.73;;;8.77;;
1701;SDS011;848;48.354;10.064;2023-07-08T06:45:11;13.63;;;8.10;;
1701;SDS011;848;48.354;10.064;2023-07-08T06:47:37;13.52;;;8.10;;
1701;SDS011;848;48.354;10.064;2023-07-08T06:50:05;13.23;;;8.50;;
1701;SDS011;848;48.354;10.064;2023-07-08T06:52:33;13.10;;;7.97;;
1701;SDS011;848;48.354;10.064;2023-07-08T06:55:02;13.30;;;8.27;;
1701;SDS011;848;48.354;10.064;2023-07-08T06:57:30;13.38;;;7.40;;
1701;SDS011;848;48.354;10.064;2023-07-08T06:59:57;15.48;;;8.65;;
1701;SDS011;848;48.354;10.064;2023-07-08T07:02:26;17.77;;;8.50;;
1701;SDS011;848;48.354;10.064;2023-07-08T07:04:53;16.52;;;9.15;;
1701;SDS011;848;48.354;10.064;2023-07-08T07:07:20;15.23;;;9.73;;
1701;SDS011;848;48.354;10.064;2023-07-08T07:09:47;15.00;;;9.40;;
1701;SDS011;848;48.354;10.064;2023-07-08T07:12:14;15.38;;;9.18;;
1701;SDS011;848;48.354;10.064;2023-07-08T07:14:43;15.63;;;8.80;;
1701;SDS011;848;48.354;10.064;2023-07-08T07:17:11;13.70;;;8.40;;
1701;SDS011;848;48.354;10.064;2023-07-08T07:19:39;14.52;;;8.80;;
1701;SDS011;848;48.354;10.064;2023-07-08T07:22:06;15.07;;;9.63;;
1701;SDS011;848;48.354;10.064;2023-07-08T07:24:33;14.77;;;8.77;;
1701;SDS011;848;48.354;10.064;2023-07-08T07:27:00;15.45;;;8.38;;
1701;SDS011;848;48.354;10.064;2023-07-08T07:29:27;13.93;;;8.63;;
1701;SDS011;848;48.354;10.064;2023-07-08T07:31:54;17.92;;;9.20;;
1701;SDS011;848;48.354;10.064;2023-07-08T07:34:20;16.20;;;9.88;;
1701;SDS011;848;48.354;10.064;2023-07-08T07:36:49;14.50;;;9.00;;
1701;SDS011;848;48.354;10.064;2023-07-08T07:39:16;14.90;;;8.77;;
1701;SDS011;848;48.354;10.064;2023-07-08T07:41:43;13.45;;;8.70;;
1701;SDS011;848;48.354;10.064;2023-07-08T07:44:09;13.55;;;8.73;;
1701;SDS011;848;48.354;10.064;2023-07-08T07:46:36;16.30;;;9.07;;
1701;SDS011;848;48.354;10.064;2023-07-08T07:49:03;19.92;;;12.65;;
1701;SDS011;848;48.354;10.064;2023-07-08T07:51:30;17.30;;;10.75;;
1701;SDS011;848;48.354;10.064;2023-07-08T07:53:58;14.32;;;9.50;;
1701;SDS011;848;48.354;10.064;2023-07-08T07:56:25;15.00;;;8.98;;
1701;SDS011;848;48.354;10.064;2023-07-08T07:58:52;14.43;;;9.23;;
1701;SDS011;848;48.354;10.064;2023-07-08T08:01:19;16.88;;;8.95;;
1701;SDS011;848;48.354;10.064;2023-07-08T08:03:46;13.85;;;8.25;;
1701;SDS011;848;48.354;10.064;2023-07-08T08:06:15;12.90;;;8.05;;
1701;SDS011;848;48.354;10.064;2023-07-08T08:08:43;13.82;;;8.75;;
1701;SDS011;848;48.354;10.064;2023-07-08T08:11:11;14.93;;;9.40;;
1701;SDS011;848;48.354;10.064;2023-07-08T08:13:38;12.05;;;7.80;;
1701;SDS011;848;48.354;10.064;2023-07-08T08:16:05;13.40;;;8.43;;
1701;SDS011;848;48.354;10.064;2023-07-08T08:18:32;13.60;;;7.97;;
1701;SDS011;848;48.354;10.064;2023-07-08T08:20:59;14.15;;;8.45;;
1701;SDS011;848;48.354;10.064;2023-07-08T08:23:26;13.68;;;8.05;;
1701;SDS011;848;48.354;10.064;2023-07-08T08:25:53;16.50;;;8.90;;
1701;SDS011;848;48.354;10.064;2023-07-08T08:28:21;15.15;;;8.25;;
1701;SDS011;848;48.354;10.064;2023-07-08T08:30:48;13.05;;;8.20;;
1701;SDS011;848;48.354;10.064;2023-07-08T08:33:16;15.18;;;8.13;;
1701;SDS011;848;48.354;10.064;2023-07-08T08:35:44;16.67;;;8.98;;
1701;SDS011;848;48.354;10.064;2023-07-08T08:38:11;13.35;;;7.57;;
1701;SDS011;848;48.354;10.064;2023-07-08T08:40:38;14.07;;;8.40;;
1701;SDS011;848;48.354;10.064;2023-07-08T08:43:06;15.25;;;7.63;;
1701;SDS011;848;48.354;10.064;2023-07-08T08:45:41;15.48;;;7.90;;
1701;SDS011;848;48.354;10.064;2023-07-08T08:48:15;15.88;;;8.23;;
1701;SDS011;848;48.354;10.064;2023-07-08T08:50:48;10.60;;;7.32;;
1701;SDS011;848;48.354;10.064;2023-07-08T08:53:17;15.00;;;7.78;;
1701;SDS011;848;48.354;10.064;2023-07-08T08:55:46;14.88;;;8.18;;
1701;SDS011;848;48.354;10.064;2023-07-08T08:58:23;12.45;;;6.80;;
1701;SDS011;848;48.354;10.064;2023-07-08T09:01:09;13.15;;;7.47;;
1701;SDS011;848;48.354;10.064;2023-07-08T09:03:41;13.93;;;6.88;;
1701;SDS011;848;48.354;10.064;2023-07-08T09:06:13;14.20;;;7.67;;
1701;SDS011;848;48.354;10.064;2023-07-08T09:08:43;17.73;;;6.83;;
1701;SDS011;848;48.354;10.064;2023-07-08T09:11:12;16.57;;;7.37;;
1701;SDS011;848;48.354;10.064;2023-07-08T09:13:47;12.97;;;7.07;;
1701;SDS011;848;48.354;10.064;2023-07-08T09:16:20;11.17;;;6.77;;
1701;SDS011;848;48.354;10.064;2023-07-08T09:18:57;10.57;;;6.00;;
1701;SDS011;848;48.354;10.064;2023-07-08T09:21:26;9.30;;;6.43;;
1701;SDS011;848;48.354;10.064;2023-07-08T09:23:59;14.80;;;6.73;;
1701;SDS011;848;48.354;10.064;2023-07-08T09:26:32;16.73;;;6.73;;
1701;SDS011;848;48.354;10.064;2023-07-08T09:28:59;10.87;;;6.30;;
1701;SDS011;848;48.354;10.064;2023-07-08T09:31:28;13.27;;;6.23;;
1701;SDS011;848;48.354;10.064;2023-07-08T09:34:05;11.13;;;6.47;;
1701;SDS011;848;48.354;10.064;2023-07-08T09:36:33;12.57;;;6.40;;
1701;SDS011;848;48.354;10.064;2023-07-08T09:39:05;11.33;;;6.50;;
1701;SDS011;848;48.354;10.064;2023-07-08T09:41:36;16.40;;;6.50;;
1701;SDS011;848;48.354;10.064;2023-07-08T09:44:05;10.10;;;6.23;;
1701;SDS011;848;48.354;10.064;2023-07-08T09:46:40;9.17;;;5.90;;
1701;SDS011;848;48.354;10.064;2023-07-08T09:49:18;9.35;;;5.60;;
1701;SDS011;848;48.354;10.064;2023-07-08T09:51:47;13.50;;;6.60;;
1701;SDS011;848;48.354;10.064;2023-07-08T09:54:16;11.73;;;6.43;;
1701;SDS011;848;48.354;10.064;2023-07-08T09:56:47;12.67;;;6.07;;
1701;SDS011;848;48.354;10.064;2023-07-08T09:59:23;12.17;;;5.90;;
1701;SDS011;848;48.354;10.064;2023-07-08T10:01:55;10.03;;;5.80;;
1701;SDS011;848;48.354;10.064;2023-07-08T10:04:22;10.60;;;6.50;;
1701;SDS011;848;48.354;10.064;2023-07-08T10:06:49;12.80;;;6.70;;
1701;SDS011;848;48.354;10.064;2023-07-08T10:09:18;11.63;;;6.87;;
1701;SDS011;848;48.354;10.064;2023-07-08T10:11:51;12.23;;;5.73;;
1701;SDS011;848;48.354;10.064;2023-07-08T10:14:23;12.30;;;5.90;;
1701;SDS011;848;48.354;10.064;2023-07-08T10:16:53;11.60;;;6.07;;
1701;SDS011;848;48.354;10.064;2023-07-08T10:19:22;12.27;;;6.17;;
1701;SDS011;848;48.354;10.064;2023-07-08T10:21:59;9.97;;;5.80;;
1701;SDS011;848;48.354;10.064;2023-07-08T10:24:41;10.40;;;5.47;;
1701;SDS011;848;48.354;10.064;2023-07-08T10:27:19;11.20;;;4.23;;
1701;SDS011;848;48.354;10.064;2023-07-08T10:29:53;10.10;;;5.17;;
1701;SDS011;848;48.354;10.064;2023-07-08T10:32:32;11.57;;;3.80;;
1701;SDS011;848;48.354;10.064;2023-07-08T10:35:12;8.80;;;4.30;;
1701;SDS011;848;48.354;10.064;2023-07-08T10:37:45;9.27;;;3.40;;
1701;SDS011;848;48.354;10.064;2023-07-08T10:40:30;6.70;;;3.73;;
1701;SDS011;848;48.354;10.064;2023-07-08T10:43:07;7.30;;;3.70;;
1701;SDS011;848;48.354;10.064;2023-07-08T10:45:58;9.17;;;4.57;;
1701;SDS011;848;48.354;10.064;2023-07-08T10:48:47;8.30;;;4.60;;
1701;SDS011;848;48.354;10.064;2023-07-08T10:51:30;8.67;;;4.03;;
1701;SDS011;848;48.354;10.064;2023-07-08T10:54:18;7.70;;;4.03;;
1701;SDS011;848;48.354;10.064;2023-07-08T10:57:02;11.30;;;4.50;;
1701;SDS011;848;48.354;10.064;2023-07-08T10:59:41;11.37;;;4.57;;
1701;SDS011;848;48.354;10.064;2023-07-08T11:02:20;8.50;;;3.57;;
1701;SDS011;848;48.354;10.064;2023-07-08T11:05:05;8.57;;;4.70;;
1701;SDS011;848;48.354;10.064;2023-07-08T11:07:46;10.93;;;4.80;;
1701;SDS011;848;48.354;10.064;2023-07-08T11:10:20;10.00;;;3.70;;
1701;SDS011;848;48.354;10.064;2023-07-08T11:12:54;7.70;;;4.30;;
1701;SDS011;848;48.354;10.064;2023-07-08T11:15:27;12.73;;;4.80;;
1701;SDS011;848;48.354;10.064;2023-07-08T11:17:58;11.80;;;3.97;;
1701;SDS011;848;48.354;10.064;2023-07-08T11:20:31;7.77;;;3.60;;
1701;SDS011;848;48.354;10.064;2023-07-08T11:23:03;6.50;;;3.53;;
1701;SDS011;848;48.354;10.064;2023-07-08T11:25:34;7.77;;;3.97;;
1701;SDS011;848;48.354;10.064;2023-07-08T11:28:03;8.60;;;3.60;;
1701;SDS011;848;48.354;10.064;2023-07-08T11:30:33;7.53;;;3.27;;
1701;SDS011;848;48.354;10.064;2023-07-08T11:33:06;7.07;;;3.23;;
1701;SDS011;848;48.354;10.064;2023-07-08T11:35:39;6.87;;;3.53;;
1701;SDS011;848;48.354;10.064;2023-07-08T11:38:09;8.53;;;3.30;;
1701;SDS011;848;48.354;10.064;2023-07-08T11:40:50;9.30;;;3.27;;
1701;SDS011;848;48.354;10.064;2023-07-08T11:43:19;9.00;;;4.60;;
1701;SDS011;848;48.354;10.064;2023-07-08T11:45:48;8.27;;;3.47;;
1701;SDS011;848;48.354;10.064;2023-07-08T11:48:16;8.37;;;3.60;;
1701;SDS011;848;48.354;10.064;2023-07-08T11:50:48;11.90;;;3.50;;
1701;SDS011;848;48.354;10.064;2023-07-08T11:53:31;8.40;;;4.10;;
1701;SDS011;848;48.354;10.064;2023-07-08T11:56:01;6.73;;;3.80;;
1701;SDS011;848;48.354;10.064;2023-07-08T11:58:33;9.70;;;4.50;;
1701;SDS011;848;48.354;10.064;2023-07-08T12:01:20;6.77;;;3.40;;
1701;SDS011;848;48.354;10.064;2023-07-08T12:03:51;7.43;;;4.20;;
1701;SDS011;848;48.354;10.064;2023-07-08T12:09:13;7.00;;;3.90;;
1701;SDS011;848;48.354;10.064;2023-07-08T12:11:43;8.53;;;4.27;;
1701;SDS011;848;48.354;10.064;2023-07-08T12:14:11;8.30;;;3.40;;
1701;SDS011;848;48.354;10.064;2023-07-08T12:16:39;12.87;;;4.40;;
1701;SDS011;848;48.354;10.064;2023-07-08T12:19:09;9.60;;;3.83;;
1701;SDS011;848;48.354;10.064;2023-07-08T12:21:42;6.20;;;3.27;;
1701;SDS011;848;48.354;10.064;2023-07-08T12:24:09;11.10;;;4.40;;
1701;SDS011;848;48.354;10.064;2023-07-08T12:26:39;6.50;;;3.47;;
1701;SDS011;848;48.354;10.064;2023-07-08T12:29:07;6.37;;;3.30;;
1701;SDS011;848;48.354;10.064;2023-07-08T12:31:34;7.83;;;3.07;;
1701;SDS011;848;48.354;10.064;2023-07-08T12:34:01;6.90;;;3.23;;
1701;SDS011;848;48.354;10.064;2023-07-08T12:36:28;9.57;;;3.73;;
1701;SDS011;848;48.354;10.064;2023-07-08T12:39:01;9.87;;;3.77;;
1701;SDS011;848;48.354;10.064;2023-07-08T12:41:28;6.17;;;3.60;;
1701;SDS011;848;48.354;10.064;2023-07-08T12:43:57;10.57;;;3.70;;
1701;SDS011;848;48.354;10.064;2023-07-08T12:46:24;10.47;;;4.37;;
1701;SDS011;848;48.354;10.064;2023-07-08T12:48:51;7.33;;;3.90;;
1701;SDS011;848;48.354;10.064;2023-07-08T12:51:19;7.63;;;4.33;;
1701;SDS011;848;48.354;10.064;2023-07-08T12:53:49;8.97;;;4.37;;
1701;SDS011;848;48.354;10.064;2023-07-08T12:56:18;12.23;;;4.30;;
1701;SDS011;848;48.354;10.064;2023-07-08T12:58:48;11.93;;;3.80;;
1701;SDS011;848;48.354;10.064;2023-07-08T13:01:17;10.37;;;4.33;;
1701;SDS011;848;48.354;10.064;2023-07-08T13:03:46;9.60;;;3.90;;
1701;SDS011;848;48.354;10.064;2023-07-08T13:06:16;6.60;;;3.23;;
1701;SDS011;848;48.354;10.064;2023-07-08T13:08:46;6.50;;;3.90;;
1701;SDS011;848;48.354;10.064;2023-07-08T13:11:19;6.13;;;3.43;;
1701;SDS011;848;48.354;10.064;2023-07-08T13:13:49;7.27;;;3.10;;
1701;SDS011;848;48.354;10.064;2023-07-08T13:16:19;7.40;;;3.47;;
1701;SDS011;848;48.354;10.064;2023-07-08T13:18:49;7.17;;;3.80;;
1701;SDS011;848;48.354;10.064;2023-07-08T13:21:18;7.73;;;4.07;;
1701;SDS011;848;48.354;10.064;2023-07-08T13:23:45;7.80;;;3.53;;
1701;SDS011;848;48.354;10.064;2023-07-08T13:26:13;7.20;;;3.27;;
1701;SDS011;848;48.354;10.064;2023-07-08T13:28:42;8.20;;;3.30;;
1701;SDS011;848;48.354;10.064;2023-07-08T13:31:15;7.13;;;3.20;;
1701;SDS011;848;48.354;10.064;2023-07-08T13:33:45;7.03;;;2.97;;
1701;SDS011;848;48.354;10.064;2023-07-08T13:36:13;6.50;;;3.80;;
1701;SDS011;848;48.354;10.064;2023-07-08T13:38:44;5.10;;;2.47;;
1701;SDS011;848;48.354;10.064;2023-07-08T13:41:15;6.90;;;3.30;;
1701;SDS011;848;48.354;10.064;2023-07-08T13:43:48;7.57;;;2.80;;
1701;SDS011;848;48.354;10.064;2023-07-08T13:46:33;4.77;;;2.47;;
1701;SDS011;848;48.354;10.064;2023-07-08T13:49:02;6.00;;;2.80;;
1701;SDS011;848;48.354;10.064;2023-07-08T13:51:35;9.07;;;2.70;;
1701;SDS011;848;48.354;10.064;2023-07-08T13:54:08;6.67;;;2.80;;
1701;SDS011;848;48.354;10.064;2023-07-08T13:56:40;6.30;;;3.00;;
1701;SDS011;848;48.354;10.064;2023-07-08T13:59:10;8.03;;;2.67;;
1701;SDS011;848;48.354;10.064;2023-07-08T14:01:43;7.63;;;2.60;;
1701;SDS011;848;48.354;10.064;2023-07-08T14:04:11;6.37;;;2.70;;
1701;SDS011;848;48.354;10.064;2023-07-08T14:06:42;6.60;;;2.87;;
1701;SDS011;848;48.354;10.064;2023-07-08T14:09:11;5.20;;;2.73;;
1701;SDS011;848;48.354;10.064;2023-07-08T14:11:40;6.73;;;2.70;;
1701;SDS011;848;48.354;10.064;2023-07-08T14:14:07;7.43;;;2.80;;
1701;SDS011;848;48.354;10.064;2023-07-08T14:16:37;7.60;;;3.07;;
1701;SDS011;848;48.354;10.064;2023-07-08T14:19:11;6.20;;;2.90;;
1701;SDS011;848;48.354;10.064;2023-07-08T14:21:40;7.30;;;2.73;;
1701;SDS011;848;48.354;10.064;2023-07-08T14:24:10;6.87;;;3.30;;
1701;SDS011;848;48.354;10.064;2023-07-08T14:26:39;5.60;;;2.90;;
1701;SDS011;848;48.354;10.064;2023-07-08T14:29:07;11.40;;;3.43;;
1701;SDS011;848;48.354;10.064;2023-07-08T14:31:36;9.67;;;2.90;;
1701;SDS011;848;48.354;10.064;2023-07-08T14:34:05;5.60;;;2.80;;
1701;SDS011;848;48.354;10.064;2023-07-08T14:36:33;10.93;;;3.40;;
1701;SDS011;848;48.354;10.064;2023-07-08T14:39:01;5.07;;;2.33;;
1701;SDS011;848;48.354;10.064;2023-07-08T14:41:37;6.67;;;2.70;;
1701;SDS011;848;48.354;10.064;2023-07-08T14:44:10;6.90;;;2.93;;
1701;SDS011;848;48.354;10.064;2023-07-08T14:46:45;8.20;;;3.10;;
1701;SDS011;848;48.354;10.064;2023-07-08T14:49:14;5.33;;;3.03;;
1701;SDS011;848;48.354;10.064;2023-07-08T14:51:42;7.70;;;2.70;;
1701;SDS011;848;48.354;10.064;2023-07-08T14:54:10;5.60;;;2.77;;
1701;SDS011;848;48.354;10.064;2023-07-08T14:56:37;7.03;;;3.10;;
1701;SDS011;848;48.354;10.064;2023-07-08T14:59:04;6.93;;;2.43;;
1701;SDS011;848;48.354;10.064;2023-07-08T15:01:33;9.17;;;2.70;;
1701;SDS011;848;48.354;10.064;2023-07-08T15:04:00;6.03;;;2.60;;
1701;SDS011;848;48.354;10.064;2023-07-08T15:06:27;7.77;;;2.60;;
1701;SDS011;848;48.354;10.064;2023-07-08T15:08:54;7.07;;;2.77;;
1701;SDS011;848;48.354;10.064;2023-07-08T15:11:21;5.90;;;3.57;;
1701;SDS011;848;48.354;10.064;2023-07-08T15:13:51;6.10;;;2.90;;
1701;SDS011;848;48.354;10.064;2023-07-08T15:16:18;6.50;;;2.57;;
1701;SDS011;848;48.354;10.064;2023-07-08T15:18:47;8.73;;;3.40;;
1701;SDS011;848;48.354;10.064;2023-07-08T15:21:14;8.37;;;2.93;;
1701;SDS011;848;48.354;10.064;2023-07-08T15:23:41;9.17;;;3.10;;